Time;durP1;ratioP1;P1;durP2;ratioP2;P2;SDS_P1;SDS_P2;PMS_P1;PMS_P2;Temp;Humidity;BMP_temperature;BMP_pressure;BME280_temperature;BME280_humidity;BME280_pressure;Samples;Min_cycle;Max_cycle;Signal;HPM_P1;HPM_P2
2021/06/04 00:00:33;;;;;;;14.10;10.32;;;;;11.60;101024.00;;;;5067567;28;20384;-72
2021/06/04 00:03:09;;;;;;;27.65;7.07;;;;;11.60;101036.00;;;;5067488;28;20048;-72
2021/06/04 00:05:41;;;;;;;20.08;8.70;;;;;11.60;101037.00;;;;5067070;28;20032;-72
2021/06/04 00:08:09;;;;;;;14.43;8.20;;;;;11.60;101039.00;;;;5068036;28;20028;-72
2021/06/04 00:10:40;;;;;;;12.73;7.65;;;;;11.50;101039.00;;;;5067939;28;20791;-72
2021/06/04 00:13:20;;;;;;;11.23;6.90;;;;;11.60;101045.00;;;;5068590;28;20111;-72
2021/06/04 00:15:48;;;;;;;10.77;6.57;;;;;11.60;101045.00;;;;5067853;28;20032;-72
2021/06/04 00:18:15;;;;;;;15.65;7.32;;;;;11.60;101039.00;;;;5066939;28;20024;-72
2021/06/04 00:20:42;;;;;;;10.48;5.18;;;;;11.50;101045.00;;;;5067270;28;20028;-72
2021/06/04 00:23:09;;;;;;;24.17;8.57;;;;;11.40;101045.00;;;;5066816;28;20032;-72
2021/06/04 00:25:37;;;;;;;13.15;7.63;;;;;11.30;101047.00;;;;5067744;28;20078;-72
2021/06/04 00:28:04;;;;;;;13.13;6.72;;;;;11.30;101071.00;;;;5066975;28;20110;-72
2021/06/04 00:30:31;;;;;;;12.52;6.93;;;;;11.30;101067.00;;;;5066758;28;20028;-73
2021/06/04 00:32:58;;;;;;;9.82;5.97;;;;;11.30;101054.00;;;;5064689;28;20037;-72
2021/06/04 00:35:26;;;;;;;12.02;6.72;;;;;11.30;101054.00;;;;5066808;28;20036;-72
2021/06/04 00:37:52;;;;;;;15.98;6.55;;;;;11.30;101065.00;;;;5066957;28;20036;-72
2021/06/04 00:40:33;;;;;;;11.38;6.43;;;;;11.30;101058.00;;;;5065850;28;20581;-72
2021/06/04 00:43:00;;;;;;;11.38;7.13;;;;;11.20;101042.00;;;;5066025;28;20036;-72
2021/06/04 00:45:29;;;;;;;11.38;6.32;;;;;11.10;101051.00;;;;5047609;28;20060;-72
2021/06/04 00:47:57;;;;;;;14.68;6.97;;;;;11.20;101055.00;;;;5064527;28;20063;-72
2021/06/04 00:50:34;;;;;;;9.05;6.20;;;;;11.10;101049.00;;;;5063866;28;20523;-73
2021/06/04 00:53:02;;;;;;;12.15;6.93;;;;;11.00;101053.00;;;;5066366;28;20082;-72
2021/06/04 00:55:28;;;;;;;11.00;7.22;;;;;11.00;101043.00;;;;5066555;28;20044;-72
2021/06/04 00:57:56;;;;;;;9.77;6.82;;;;;11.00;101050.00;;;;5066908;28;20086;-72
2021/06/04 01:00:47;;;;;;;10.48;6.18;;;;;11.00;101043.00;;;;5065676;28;20021;-72
2021/06/04 01:03:14;;;;;;;;;;;;;10.90;101037.00;;;;5065929;28;20442;-72
2021/06/04 01:05:42;;;;;;;10.32;5.65;;;;;10.90;101035.00;;;;5066566;28;19962;-72
2021/06/04 01:08:30;;;;;;;8.40;6.30;;;;;10.80;101044.00;;;;5043628;28;20033;-73
2021/06/04 01:11:22;;;;;;;8.80;5.80;;;;;10.90;101042.00;;;;5064974;28;20044;-72
2021/06/04 01:13:54;;;;;;;14.00;6.30;;;;;10.90;101036.00;;;;5066394;28;20044;-71
2021/06/04 01:16:30;;;;;;;7.60;5.85;;;;;10.90;101025.00;;;;5066960;28;20060;-72
2021/06/04 01:19:15;;;;;;;9.82;7.60;;;;;10.90;101044.00;;;;5066624;28;20035;-71
2021/06/04 01:21:46;;;;;;;51.08;25.33;;;;;11.00;101041.00;;;;5066942;28;20115;-72
2021/06/04 01:24:18;;;;;;;27.52;14.48;;;;;10.90;101042.00;;;;5066661;28;20087;-72
2021/06/04 01:26:58;;;;;;;18.98;10.95;;;;;10.90;101012.00;;;;5066350;28;20036;-72
2021/06/04 01:29:30;;;;;;;18.08;9.90;;;;;11.00;101025.00;;;;5067109;28;20084;-72
2021/06/04 01:32:00;;;;;;;23.63;8.80;;;;;11.00;101038.00;;;;5068080;28;20507;-72
2021/06/04 01:34:37;;;;;;;15.30;7.20;;;;;11.00;101021.00;;;;5048307;28;20408;-72
2021/06/04 01:37:12;;;;;;;8.35;6.85;;;;;11.00;101017.00;;;;5066577;28;20028;-72
2021/06/04 01:39:45;;;;;;;13.88;6.55;;;;;10.90;101019.00;;;;5067479;28;20506;-72
2021/06/04 01:42:14;;;;;;;20.23;7.28;;;;;10.80;101032.00;;;;5067404;28;20032;-72
2021/06/04 01:44:50;;;;;;;11.88;6.68;;;;;10.80;101027.00;;;;5066331;28;20031;-72
2021/06/04 01:47:28;;;;;;;16.58;7.05;;;;;10.70;101006.00;;;;5066383;28;20037;-72
2021/06/04 01:49:57;;;;;;;9.10;6.20;;;;;10.70;101009.00;;;;5066538;28;20133;-72
2021/06/04 01:52:31;;;;;;;19.63;7.50;;;;;10.70;101013.00;;;;5065952;28;20059;-72
2021/06/04 01:55:12;;;;;;;13.15;7.38;;;;;10.50;101011.00;;;;5066457;28;20100;-71
2021/06/04 01:58:08;;;;;;;16.17;6.75;;;;;10.40;101016.00;;;;5066893;28;20028;-71
2021/06/04 02:00:42;;;;;;;10.70;6.25;;;;;10.40;100988.00;;;;5046323;28;20037;-71
2021/06/04 02:03:15;;;;;;;12.43;6.65;;;;;10.30;101007.00;;;;5066270;28;20021;-71
2021/06/04 02:05:42;;;;;;;15.85;6.25;;;;;10.40;101008.00;;;;5065774;28;20032;-72
2021/06/04 02:08:14;;;;;;;8.80;6.13;;;;;10.30;100999.00;;;;5066523;28;20050;-71
2021/06/04 02:10:46;;;;;;;;;;;;;10.30;100994.00;;;;5066408;28;20033;-71
2021/06/04 02:13:14;;;;;;;11.75;6.78;;;;;10.20;100996.00;;;;5066276;28;20387;-72
2021/06/04 02:15:52;;;;;;;18.45;6.40;;;;;10.20;100988.00;;;;5065520;28;20056;-71
2021/06/04 02:18:57;;;;;;;11.05;6.63;;;;;10.20;100985.00;;;;5065720;28;20016;-72
2021/06/04 02:21:32;;;;;;;7.60;6.18;;;;;10.20;100997.00;;;;5051814;28;20041;-72
2021/06/04 02:24:15;;;;;;;9.55;6.07;;;;;10.20;100989.00;;;;5067012;28;20021;-72
2021/06/04 02:26:56;;;;;;;14.02;5.72;;;;;10.20;100993.00;;;;5065772;28;20028;-72
2021/06/04 02:29:33;;;;;;;8.60;6.47;;;;;10.20;100987.00;;;;5065574;28;20542;-72
2021/06/04 02:32:38;;;;;;;9.48;5.78;;;;;10.10;100987.00;;;;5065390;28;20040;-72
2021/06/04 02:35:15;;;;;;;9.68;6.32;;;;;10.10;100978.00;;;;5054623;28;20458;-72
2021/06/04 02:37:47;;;;;;;6.55;4.50;;;;;10.10;100963.00;;;;5065890;28;20040;-72
2021/06/04 02:40:19;;;;;;;;;;;;;10.10;100976.00;;;;5065941;28;20773;-72
2021/06/04 02:42:55;;;;;;;9.00;4.72;;;;;10.00;100958.00;;;;5048458;28;19912;-71
2021/06/04 02:45:30;;;;;;;14.75;6.82;;;;;10.00;100973.00;;;;5066673;28;20043;-72
2021/06/04 02:48:01;;;;;;;12.85;5.45;;;;;10.00;100955.00;;;;5065681;28;20110;-72
2021/06/04 02:50:42;;;;;;;15.40;6.40;;;;;10.00;100958.00;;;;5066388;28;20028;-72
2021/06/04 02:53:26;;;;;;;7.28;6.15;;;;;9.90;100953.00;;;;5066252;28;20035;-71
2021/06/04 02:56:18;;;;;;;12.75;5.90;;;;;9.90;100961.00;;;;5066151;28;20529;-71
2021/06/04 02:59:15;;;;;;;6.63;6.03;;;;;9.90;100962.00;;;;5064963;28;20061;-72
2021/06/04 03:01:52;;;;;;;9.90;6.63;;;;;9.90;100954.00;;;;5051919;28;20036;-72
2021/06/04 03:04:19;;;;;;;7.95;5.00;;;;;9.90;100947.00;;;;5065336;28;20487;-72
2021/06/04 03:06:56;;;;;;;11.60;5.95;;;;;9.90;100939.00;;;;5047185;28;20493;-72
2021/06/04 03:09:29;;;;;;;6.95;5.72;;;;;9.90;100942.00;;;;5065492;28;20079;-72
2021/06/04 03:12:00;;;;;;;29.52;5.30;;;;;9.90;100938.00;;;;5065227;28;20066;-73
2021/06/04 03:14:27;;;;;;;8.95;4.90;;;;;9.80;100936.00;;;;5065772;28;20094;-72
2021/06/04 03:16:55;;;;;;;7.15;4.75;;;;;9.80;100940.00;;;;5065581;28;20551;-71
2021/06/04 03:19:22;;;;;;;6.78;5.57;;;;;9.80;100949.00;;;;5064210;28;20032;-71
2021/06/04 03:21:54;;;;;;;15.60;6.80;;;;;9.80;100944.00;;;;5065196;28;20518;-72
2021/06/04 03:24:29;;;;;;;;;;;;;9.70;100934.00;;;;5066258;28;20651;-71
2021/06/04 03:26:57;;;;;;;17.38;9.05;;;;;9.60;100921.00;;;;5065799;28;19912;-72
2021/06/04 03:29:25;;;;;;;9.50;7.85;;;;;9.50;100938.00;;;;5067977;28;20131;-72
2021/06/04 03:31:59;;;;;;;10.73;8.13;;;;;9.50;100933.00;;;;5068609;28;20028;-71
2021/06/04 03:34:27;;;;;;;11.68;7.00;;;;;9.50;100934.00;;;;5069549;28;20111;-71
2021/06/04 03:36:57;;;;;;;12.38;6.93;;;;;9.60;100911.00;;;;5051025;28;20033;-71
2021/06/04 03:39:28;;;;;;;10.43;6.50;;;;;9.50;100919.00;;;;5069388;28;20130;-71
2021/06/04 03:41:56;;;;;;;8.80;6.93;;;;;9.60;100922.00;;;;5052098;28;20075;-71
2021/06/04 03:44:25;;;;;;;8.68;6.72;;;;;9.60;100923.00;;;;5050673;28;20032;-71
2021/06/04 03:46:52;;;;;;;9.32;6.25;;;;;9.60;100918.00;;;;5069568;28;20071;-71
2021/06/04 03:49:20;;;;;;;13.88;5.55;;;;;9.50;100929.00;;;;5068220;28;20426;-71
2021/06/04 03:51:48;;;;;;;6.38;5.30;;;;;9.50;100937.00;;;;5068884;28;20123;-71
2021/06/04 03:54:24;;;;;;;7.15;5.97;;;;;9.50;100931.00;;;;5068697;28;20033;-71
2021/06/04 03:56:51;;;;;;;9.30;7.18;;;;;9.50;100921.00;;;;5068876;28;20044;-72
2021/06/04 03:59:18;;;;;;;10.15;6.28;;;;;9.40;100936.00;;;;5068891;28;20747;-71
2021/06/04 04:01:49;;;;;;;11.50;6.68;;;;;9.40;100908.00;;;;5069518;28;20097;-71
2021/06/04 04:04:16;;;;;;;17.33;6.97;;;;;9.50;100901.00;;;;5068675;28;20032;-71
2021/06/04 04:06:43;;;;;;;15.32;8.43;;;;;9.50;100909.00;;;;5069492;28;20563;-71
2021/06/04 04:09:11;;;;;;;9.35;6.97;;;;;9.50;100915.00;;;;5068540;28;20090;-71
2021/06/04 04:11:40;;;;;;;9.77;6.68;;;;;9.50;100892.00;;;;5068057;28;20043;-71
2021/06/04 04:14:07;;;;;;;8.73;6.10;;;;;9.50;100919.00;;;;5068292;28;20060;-71
2021/06/04 04:16:34;;;;;;;9.60;5.70;;;;;9.50;100915.00;;;;5068460;28;20511;-71
2021/06/04 04:19:01;;;;;;;8.60;6.60;;;;;9.50;100924.00;;;;5068081;28;20031;-71
2021/06/04 04:21:28;;;;;;;10.75;7.75;;;;;9.50;100922.00;;;;5068070;28;20024;-71
2021/06/04 04:23:59;;;;;;;6.53;5.93;;;;;9.40;100905.00;;;;5068007;28;20078;-71
2021/06/04 04:26:36;;;;;;;11.02;7.68;;;;;9.30;100915.00;;;;5068047;28;20539;-72
2021/06/04 04:29:04;;;;;;;10.02;7.30;;;;;9.30;100891.00;;;;5067699;28;20060;-71
2021/06/04 04:31:34;;;;;;;10.07;7.00;;;;;9.30;100911.00;;;;5067900;28;20068;-71
2021/06/04 04:34:02;;;;;;;7.80;6.35;;;;;9.30;100924.00;;;;5068283;28;20025;-71
2021/06/04 04:36:32;;;;;;;10.13;7.40;;;;;9.30;100916.00;;;;5067880;28;20032;-72
2021/06/04 04:38:59;;;;;;;13.57;7.25;;;;;9.40;100924.00;;;;5067756;28;20039;-71
2021/06/04 04:41:27;;;;;;;8.93;7.00;;;;;9.40;100897.00;;;;5068191;28;20032;-71
2021/06/04 04:43:55;;;;;;;9.30;7.22;;;;;9.30;100913.00;;;;5067545;28;20511;-70
2021/06/04 04:46:24;;;;;;;12.15;7.53;;;;;9.30;100892.00;;;;5068500;28;20415;-71
2021/06/04 04:48:51;;;;;;;9.45;6.65;;;;;9.30;100894.00;;;;5067387;28;20029;-71
2021/06/04 04:51:19;;;;;;;12.10;7.30;;;;;9.30;100905.00;;;;5067208;28;20541;-71
2021/06/04 04:53:48;;;;;;;7.45;6.22;;;;;9.30;100899.00;;;;5067713;28;20123;-71
2021/06/04 04:56:16;;;;;;;12.35;6.05;;;;;9.30;100882.00;;;;5067888;28;20036;-71
2021/06/04 04:58:43;;;;;;;11.65;6.55;;;;;9.30;100876.00;;;;5067733;28;20080;-71
2021/06/04 05:01:11;;;;;;;8.93;7.18;;;;;9.20;100894.00;;;;5067508;28;20048;-71
2021/06/04 05:03:38;;;;;;;8.35;6.63;;;;;9.20;100874.00;;;;5066798;28;20028;-71
2021/06/04 05:06:06;;;;;;;16.30;6.50;;;;;9.30;100867.00;;;;5067259;28;20020;-71
2021/06/04 05:08:33;;;;;;;12.40;6.47;;;;;9.30;100893.00;;;;5067818;28;20032;-71
2021/06/04 05:10:59;;;;;;;10.68;8.13;;;;;9.30;100883.00;;;;5067463;28;20037;-71
2021/06/04 05:13:26;;;;;;;9.85;6.82;;;;;9.30;100891.00;;;;5067391;28;20032;-70
2021/06/04 05:15:53;;;;;;;10.15;7.35;;;;;9.30;100887.00;;;;5067779;28;20399;-71
2021/06/04 05:18:20;;;;;;;8.75;6.63;;;;;9.20;100876.00;;;;5065732;28;20385;-71
2021/06/04 05:20:48;;;;;;;9.75;6.90;;;;;9.10;100880.00;;;;5066851;28;20033;-71
2021/06/04 05:23:17;;;;;;;11.77;7.18;;;;;9.10;100867.00;;;;5067038;28;20476;-71
2021/06/04 05:25:47;;;;;;;6.30;5.13;;;;;9.10;100885.00;;;;5067046;28;20078;-71
2021/06/04 05:28:19;;;;;;;8.32;5.35;;;;;9.20;100877.00;;;;5066676;28;20592;-71
2021/06/04 05:30:48;;;;;;;9.43;5.57;;;;;9.10;100881.00;;;;5066463;28;20020;-70
2021/06/04 05:33:17;;;;;;;11.38;6.80;;;;;9.10;100853.00;;;;5066825;28;20528;-71
2021/06/04 05:35:45;;;;;;;6.97;5.25;;;;;9.00;100852.00;;;;5065837;28;20055;-71
2021/06/04 05:38:12;;;;;;;7.07;5.10;;;;;9.00;100855.00;;;;5067326;28;20741;-71
2021/06/04 05:40:43;;;;;;;8.23;5.18;;;;;9.00;100845.00;;;;5066716;28;20039;-71
2021/06/04 05:43:12;;;;;;;12.88;5.60;;;;;9.00;100851.00;;;;5066068;28;20086;-71
2021/06/04 05:45:44;;;;;;;9.98;5.85;;;;;9.00;100831.00;;;;5065776;28;20119;-70
2021/06/04 05:48:12;;;;;;;9.15;6.22;;;;;9.00;100847.00;;;;5067146;28;20565;-71
2021/06/04 05:50:43;;;;;;;7.28;5.07;;;;;8.80;100833.00;;;;5066230;28;20106;-71
2021/06/04 05:53:12;;;;;;;7.37;6.13;;;;;8.80;100816.00;;;;5066211;28;20453;-71
2021/06/04 05:55:40;;;;;;;7.57;5.97;;;;;8.90;100828.00;;;;5067102;28;20032;-71
2021/06/04 05:58:11;;;;;;;12.23;6.40;;;;;8.80;100827.00;;;;5065784;28;20479;-71
2021/06/04 06:00:41;;;;;;;;;;;;;8.80;100846.00;;;;5066564;28;20040;-72
2021/06/04 06:03:10;;;;;;;10.77;6.35;;;;;8.80;100813.00;;;;5066174;28;19991;-70
2021/06/04 06:05:36;;;;;;;10.98;6.35;;;;;8.80;100830.00;;;;5066377;28;20032;-70
2021/06/04 06:08:04;;;;;;;9.93;5.65;;;;;8.80;100832.00;;;;5066196;28;20078;-71
2021/06/04 06:10:31;;;;;;;7.97;5.03;;;;;8.80;100829.00;;;;5065860;28;20024;-71
2021/06/04 06:12:58;;;;;;;10.13;6.22;;;;;8.80;100828.00;;;;5064932;28;20495;-71
2021/06/04 06:15:27;;;;;;;7.93;6.30;;;;;8.70;100823.00;;;;5047479;28;20461;-71
2021/06/04 06:17:54;;;;;;;18.00;6.32;;;;;8.80;100836.00;;;;5066467;28;20039;-71
2021/06/04 06:20:24;;;;;;;10.93;6.15;;;;;8.80;100849.00;;;;5066143;28;20083;-71
2021/06/04 06:22:52;;;;;;;11.68;5.55;;;;;8.70;100847.00;;;;5065007;28;20525;-71
2021/06/04 06:25:23;;;;;;;8.93;5.25;;;;;8.80;100823.00;;;;5066191;28;20079;-70
2021/06/04 06:27:49;;;;;;;14.07;5.95;;;;;8.80;100853.00;;;;5065457;28;20060;-70
2021/06/04 06:30:19;;;;;;;7.68;4.95;;;;;8.80;100831.00;;;;5066056;28;20032;-70
2021/06/04 06:32:47;;;;;;;12.20;5.38;;;;;8.80;100836.00;;;;5065827;28;20411;-71
2021/06/04 06:35:33;;;;;;;6.53;4.65;;;;;8.80;100844.00;;;;5065353;28;20523;-71
2021/06/04 06:37:59;;;;;;;16.63;5.03;;;;;8.70;100815.00;;;;5065528;28;20068;-70
2021/06/04 06:40:26;;;;;;;7.60;5.13;;;;;8.70;100832.00;;;;5065028;28;20025;-71
2021/06/04 06:42:53;;;;;;;5.07;4.35;;;;;8.60;100821.00;;;;5065605;28;20026;-71
2021/06/04 06:45:23;;;;;;;8.10;4.60;;;;;8.60;100812.00;;;;5066152;28;20033;-72
2021/06/04 06:47:51;;;;;;;12.35;5.60;;;;;8.60;100817.00;;;;5064936;28;20031;-72
2021/06/04 06:50:19;;;;;;;11.57;5.43;;;;;8.60;100814.00;;;;5065238;28;20037;-71
2021/06/04 06:52:45;;;;;;;9.15;4.78;;;;;8.50;100806.00;;;;5064910;28;20112;-71
2021/06/04 06:55:12;;;;;;;10.50;6.18;;;;;8.60;100808.00;;;;5065443;28;20029;-70
2021/06/04 06:57:39;;;;;;;7.95;6.30;;;;;8.60;100823.00;;;;5065045;28;20108;-71
2021/06/04 07:00:17;;;;;;;10.40;7.13;;;;;8.60;100826.00;;;;5065353;28;20036;-71
2021/06/04 07:02:44;;;;;;;11.98;6.38;;;;;8.60;100812.00;;;;5047294;28;20028;-71
2021/06/04 07:05:12;;;;;;;18.35;7.00;;;;;8.60;100811.00;;;;5065323;28;20051;-72
2021/06/04 07:07:39;;;;;;;9.75;7.07;;;;;8.60;100825.00;;;;5065694;28;20463;-71
2021/06/04 07:10:13;;;;;;;10.15;7.25;;;;;8.60;100809.00;;;;5064501;28;20194;-71
2021/06/04 07:12:41;;;;;;;7.35;6.40;;;;;8.50;100816.00;;;;5065005;28;20541;-71
2021/06/04 07:15:10;;;;;;;10.68;7.03;;;;;8.50;100802.00;;;;5065193;28;20146;-70
2021/06/04 07:17:38;;;;;;;12.18;7.03;;;;;8.50;100824.00;;;;5065089;28;20457;-71
2021/06/04 07:20:08;;;;;;;8.95;7.07;;;;;8.50;100825.00;;;;5064853;28;20051;-70
2021/06/04 07:22:35;;;;;;;9.77;7.55;;;;;8.50;100805.00;;;;5065542;28;20028;-71
2021/06/04 07:25:05;;;;;;;10.68;6.60;;;;;8.50;100816.00;;;;5064566;28;20039;-71
2021/06/04 07:27:33;;;;;;;10.95;7.38;;;;;8.40;100815.00;;;;5064720;28;20055;-71
2021/06/04 07:30:00;;;;;;;9.48;7.40;;;;;8.50;100808.00;;;;5065347;28;20496;-70
2021/06/04 07:32:28;;;;;;;8.93;6.72;;;;;8.50;100803.00;;;;5065110;28;20032;-71
2021/06/04 07:34:55;;;;;;;10.55;8.15;;;;;8.50;100818.00;;;;5046173;28;20032;-71
2021/06/04 07:37:21;;;;;;;10.18;7.28;;;;;8.50;100801.00;;;;5064186;28;20103;-71
2021/06/04 07:39:48;;;;;;;10.48;7.18;;;;;8.50;100812.00;;;;5065057;28;20442;-71
2021/06/04 07:42:16;;;;;;;11.70;6.55;;;;;8.60;100801.00;;;;5065410;28;20446;-71
2021/06/04 07:44:43;;;;;;;13.80;6.72;;;;;8.60;100812.00;;;;5065239;28;20028;-71
2021/06/04 07:47:10;;;;;;;7.25;6.28;;;;;8.60;100805.00;;;;5065093;28;20435;-71
2021/06/04 07:49:37;;;;;;;12.30;6.88;;;;;8.50;100801.00;;;;5064418;28;20032;-70
2021/06/04 07:52:04;;;;;;;7.90;5.65;;;;;8.50;100794.00;;;;5064258;28;20037;-71
2021/06/04 07:54:33;;;;;;;8.90;6.43;;;;;8.40;100815.00;;;;5063696;28;20036;-71
2021/06/04 07:57:00;;;;;;;9.13;6.43;;;;;8.50;100807.00;;;;5064475;28;20035;-71
2021/06/04 07:59:26;;;;;;;13.95;6.03;;;;;8.40;100809.00;;;;5064970;28;20035;-71
2021/06/04 08:01:54;;;;;;;13.30;5.95;;;;;8.40;100804.00;;;;5064497;28;20056;-72
2021/06/04 08:04:20;;;;;;;7.95;6.25;;;;;8.40;100805.00;;;;5064034;28;20027;-71
2021/06/04 08:06:47;;;;;;;13.32;5.70;;;;;8.40;100822.00;;;;5064482;28;20029;-70
2021/06/04 08:09:15;;;;;;;6.72;5.78;;;;;8.40;100804.00;;;;5064393;28;20495;-72
2021/06/04 08:12:04;;;;;;;9.90;5.93;;;;;8.40;100817.00;;;;5065138;28;20086;-71
2021/06/04 08:14:31;;;;;;;7.22;5.22;;;;;8.40;100806.00;;;;5065242;28;20041;-71
2021/06/04 08:16:58;;;;;;;12.85;6.50;;;;;8.40;100810.00;;;;5068338;28;20458;-71
2021/06/04 08:19:27;;;;;;;10.25;6.15;;;;;8.40;100810.00;;;;5067368;28;20042;-71
2021/06/04 08:21:55;;;;;;;13.02;6.32;;;;;8.30;100795.00;;;;5067492;28;20020;-71
2021/06/04 08:24:25;;;;;;;11.98;6.07;;;;;8.30;100805.00;;;;5068148;28;20029;-71
2021/06/04 08:26:52;;;;;;;11.63;5.47;;;;;8.30;100811.00;;;;5067673;28;20046;-71
2021/06/04 08:29:20;;;;;;;4.93;4.43;;;;;8.40;100802.00;;;;5067579;28;20056;-71
2021/06/04 08:31:47;;;;;;;11.48;7.10;;;;;8.40;100788.00;;;;5068429;28;20418;-71
2021/06/04 08:34:14;;;;;;;12.65;7.85;;;;;8.40;100787.00;;;;5067174;28;20078;-71
2021/06/04 08:36:43;;;;;;;12.77;8.40;;;;;8.40;100793.00;;;;5067786;28;20024;-71
2021/06/04 08:39:18;;;;;;;11.27;7.80;;;;;8.40;100810.00;;;;5068708;28;20507;-71
2021/06/04 08:41:57;;;;;;;25.27;11.77;;;;;8.30;100818.00;;;;5066818;28;20492;-72
2021/06/04 08:44:50;;;;;;;10.52;8.02;;;;;8.40;100797.00;;;;5067226;28;20411;-71
2021/06/04 08:47:31;;;;;;;14.85;9.88;;;;;8.40;100812.00;;;;5067342;28;20619;-71
2021/06/04 08:50:08;;;;;;;23.33;12.38;;;;;8.40;100825.00;;;;5067629;28;20074;-71
2021/06/04 08:53:04;;;;;;;16.58;11.45;;;;;8.40;100822.00;;;;5067654;28;20487;-71
2021/06/04 08:55:33;;;;;;;16.80;10.70;;;;;8.40;100834.00;;;;5064536;28;20109;-71
2021/06/04 08:58:09;;;;;;;12.95;8.25;;;;;8.40;100816.00;;;;5067543;28;20040;-71
2021/06/04 09:00:39;;;;;;;11.82;9.75;;;;;8.30;100820.00;;;;5067279;28;20065;-71
2021/06/04 09:03:25;;;;;;;16.42;9.43;;;;;8.30;100828.00;;;;5067821;28;20025;-71
2021/06/04 09:06:06;;;;;;;15.68;9.98;;;;;8.30;100828.00;;;;5049819;28;20067;-71
2021/06/04 09:08:36;;;;;;;15.43;10.73;;;;;8.30;100849.00;;;;5067631;28;20020;-72
2021/06/04 09:11:30;;;;;;;21.13;9.00;;;;;8.40;100852.00;;;;5067180;28;20911;-70
2021/06/04 09:13:57;;;;;;;12.10;7.82;;;;;8.60;100836.00;;;;5064111;28;20127;-71
2021/06/04 09:16:32;;;;;;;15.05;7.35;;;;;8.60;100846.00;;;;5067304;28;20024;-71
2021/06/04 09:19:29;;;;;;;19.13;8.88;;;;;8.60;100870.00;;;;5067028;28;20029;-71
2021/06/04 09:21:56;;;;;;;13.43;7.90;;;;;8.60;100875.00;;;;5066500;28;20020;-71
2021/06/04 09:24:34;;;;;;;13.45;9.88;;;;;8.60;100873.00;;;;5066143;28;20033;-71
2021/06/04 09:27:01;;;;;;;10.80;7.38;;;;;8.60;100875.00;;;;5067092;28;20040;-71
2021/06/04 09:29:31;;;;;;;10.93;7.28;;;;;8.70;100874.00;;;;5067256;28;20056;-72
2021/06/04 09:32:20;;;;;;;11.45;7.22;;;;;8.60;100882.00;;;;5067207;28;20078;-71
2021/06/04 09:34:47;;;;;;;10.35;8.07;;;;;8.60;100879.00;;;;5066875;28;20510;-71
2021/06/04 09:37:23;;;;;;;19.40;8.68;;;;;8.70;100883.00;;;;5067070;28;20077;-71
2021/06/04 09:40:18;;;;;;;21.60;9.00;;;;;8.70;100875.00;;;;5065820;28;20090;-71
2021/06/04 09:43:07;;;;;;;16.02;10.73;;;;;8.60;100878.00;;;;5066038;28;20048;-71
2021/06/04 09:45:52;;;;;;;19.13;8.82;;;;;8.70;100879.00;;;;5066651;28;20029;-71
2021/06/04 09:48:40;;;;;;;18.73;7.78;;;;;8.80;100888.00;;;;5066415;28;20431;-71
2021/06/04 09:51:12;;;;;;;8.68;6.82;;;;;8.80;100890.00;;;;5065537;28;20121;-71
2021/06/04 09:53:39;;;;;;;11.77;8.48;;;;;8.80;100881.00;;;;5066572;28;20028;-71
2021/06/04 09:56:09;;;;;;;14.43;6.80;;;;;8.80;100899.00;;;;5066006;28;20111;-71
2021/06/04 09:58:53;;;;;;;20.02;7.20;;;;;8.80;100907.00;;;;5066377;28;20059;-71
2021/06/04 10:01:24;;;;;;;8.05;6.22;;;;;8.80;100907.00;;;;5066458;28;20040;-71
2021/06/04 10:03:55;;;;;;;13.00;6.35;;;;;8.90;100904.00;;;;5066501;28;20031;-71
2021/06/04 10:06:44;;;;;;;26.55;6.78;;;;;8.90;100895.00;;;;5065742;28;20115;-71
2021/06/04 10:09:29;;;;;;;11.07;6.60;;;;;8.90;100907.00;;;;5065383;28;20103;-71
2021/06/04 10:12:04;;;;;;;30.38;7.57;;;;;8.90;100898.00;;;;5065760;28;20094;-71
2021/06/04 10:14:51;;;;;;;15.73;7.47;;;;;8.90;100895.00;;;;5065887;28;20608;-71
2021/06/04 10:18:05;;;;;;;10.15;6.38;;;;;9.00;100919.00;;;;5065849;28;20566;-72
2021/06/04 10:20:33;;;;;;;10.52;5.97;;;;;9.00;100923.00;;;;5061059;28;20047;-72
2021/06/04 10:23:02;;;;;;;9.85;5.70;;;;;9.10;100918.00;;;;5066108;28;20056;-71
2021/06/04 10:25:38;;;;;;;9.48;6.68;;;;;9.10;100904.00;;;;5065420;28;20031;-71
2021/06/04 10:28:05;;;;;;;13.65;6.75;;;;;9.10;100913.00;;;;5065809;28;20045;-71
2021/06/04 10:30:34;;;;;;;13.18;6.40;;;;;9.20;100911.00;;;;5065392;28;20977;-71
2021/06/04 10:33:34;;;;;;;13.18;5.50;;;;;9.30;100919.00;;;;5065047;28;20028;-72
2021/06/04 10:36:04;;;;;;;21.55;6.82;;;;;9.50;100921.00;;;;5065875;28;20056;-71
2021/06/04 10:38:44;;;;;;;16.60;6.15;;;;;9.50;100906.00;;;;5064487;28;20114;-71
2021/06/04 10:41:20;;;;;;;12.25;6.07;;;;;9.60;100906.00;;;;5065103;28;20032;-72
2021/06/04 10:43:55;;;;;;;7.30;5.43;;;;;9.70;100914.00;;;;5065383;28;20107;-71
2021/06/04 10:46:44;;;;;;;13.98;6.00;;;;;9.80;100924.00;;;;5065596;28;20028;-71
2021/06/04 10:49:35;;;;;;;15.90;6.40;;;;;10.10;100903.00;;;;5065442;28;20135;-72
2021/06/04 10:52:31;;;;;;;15.77;5.60;;;;;11.20;100894.00;;;;5065029;28;20455;-71
2021/06/04 10:55:03;;;;;;;8.90;4.78;;;;;12.00;100870.00;;;;4993241;28;20049;-71
2021/06/04 10:57:44;;;;;;;10.88;4.20;;;;;12.30;100897.00;;;;5064151;28;20032;-72
2021/06/04 11:00:18;;;;;;;9.23;3.72;;;;;12.90;100862.00;;;;5064127;28;20078;-71
2021/06/04 11:03:10;;;;;;;6.38;3.45;;;;;12.30;100896.00;;;;5065658;28;20115;-72
2021/06/04 11:05:52;;;;;;;7.43;3.33;;;;;13.00;100836.00;;;;5065052;28;20111;-71
2021/06/04 11:08:37;;;;;;;8.25;3.63;;;;;13.50;100868.00;;;;5065500;28;20460;-71
2021/06/04 11:11:25;;;;;;;10.13;4.40;;;;;13.70;100881.00;;;;5064894;28;20082;-71
2021/06/04 11:14:10;;;;;;;17.85;6.68;;;;;14.50;100854.00;;;;5065129;28;20111;-72
2021/06/04 11:17:00;;;;;;;18.35;7.70;;;;;15.00;100837.00;;;;5064289;28;20025;-72
2021/06/04 11:19:44;;;;;;;12.52;4.75;;;;;16.50;100760.00;;;;5064454;28;20137;-71
2021/06/04 11:22:17;;;;;;;11.00;4.47;;;;;16.90;100778.00;;;;5065265;28;20555;-71
2021/06/04 11:25:13;;;;;;;10.27;4.32;;;;;17.80;100793.00;;;;5064950;28;20042;-72
2021/06/04 11:27:47;;;;;;;9.52;3.80;;;;;17.50;100778.00;;;;5065320;28;20037;-71
2021/06/04 11:30:26;;;;;;;7.40;4.38;;;;;18.30;100723.00;;;;5064858;28;20049;-71
2021/06/04 11:33:25;;;;;;;17.80;5.72;;;;;19.10;100767.00;;;;5064786;28;20039;-72
2021/06/04 11:35:57;;;;;;;9.43;3.88;;;;;19.10;100791.00;;;;5064712;28;20032;-72
2021/06/04 11:38:48;;;;;;;11.25;3.88;;;;;20.00;100794.00;;;;5064685;28;20400;-72
2021/06/04 11:41:28;;;;;;;17.20;4.28;;;;;20.40;100794.00;;;;5064005;28;20024;-72
2021/06/04 11:44:15;;;;;;;11.52;3.55;;;;;21.00;100802.00;;;;5063607;28;20087;-72
2021/06/04 11:46:42;;;;;;;7.00;3.28;;;;;21.50;100774.00;;;;5064133;28;20028;-72
2021/06/04 11:49:09;;;;;;;15.73;3.40;;;;;21.20;100807.00;;;;5064828;28;20579;-72
2021/06/04 11:51:43;;;;;;;11.57;4.00;;;;;20.70;100780.00;;;;5068808;28;20059;-72
2021/06/04 11:54:15;;;;;;;31.58;5.65;;;;;20.90;100777.00;;;;5068874;28;20040;-72
2021/06/04 11:57:00;;;;;;;12.63;4.43;;;;;21.10;100798.00;;;;5069010;28;20029;-72
2021/06/04 11:59:48;;;;;;;30.45;6.72;;;;;21.30;100797.00;;;;5068922;28;20024;-72
2021/06/04 12:02:37;;;;;;;6.50;3.35;;;;;21.60;100823.00;;;;5068403;28;20078;-72
2021/06/04 12:05:19;;;;;;;9.18;3.20;;;;;21.60;100827.00;;;;5068534;28;20102;-72
2021/06/04 12:08:16;;;;;;;7.40;3.00;;;;;22.60;100814.00;;;;5068853;28;20040;-71
2021/06/04 12:10:57;;;;;;;9.85;3.00;;;;;22.80;100755.00;;;;5067878;28;20119;-72
2021/06/04 12:13:45;;;;;;;10.02;3.10;;;;;23.40;100793.00;;;;5067863;28;20500;-72
2021/06/04 12:19:10;;;;;;;6.45;2.78;;;;;22.90;100801.00;;;;5067703;28;20043;-73
2021/06/04 12:21:39;;;;;;;6.85;3.15;;;;;23.60;100831.00;;;;5069030;28;20036;-72
2021/06/04 12:24:07;;;;;;;11.82;2.97;;;;;23.60;100861.00;;;;5068248;28;20379;-72
2021/06/04 12:26:52;;;;;;;19.75;3.60;;;;;23.80;100834.00;;;;5068565;28;20021;-72
2021/06/04 12:29:22;;;;;;;9.90;3.03;;;;;23.90;100844.00;;;;5066638;28;20045;-72
2021/06/04 12:31:57;;;;;;;11.68;3.83;;;;;24.30;100844.00;;;;5068422;28;20479;-73
2021/06/04 12:34:32;;;;;;;10.10;3.42;;;;;24.70;100829.00;;;;5067664;28;20107;-73
2021/06/04 12:37:04;;;;;;;10.93;3.25;;;;;24.80;100824.00;;;;5067387;28;20060;-72
2021/06/04 12:39:35;;;;;;;6.50;2.75;;;;;24.90;100834.00;;;;5067151;28;20086;-72
2021/06/04 12:42:11;;;;;;;12.02;3.30;;;;;25.40;100838.00;;;;5066908;28;20056;-72